Time;durP1;ratioP1;P1;durP2;ratioP2;P2;SDS_P1;SDS_P2;PMS_P1;PMS_P2;Temp;Humidity;BMP_temperature;BMP_pressure;BME280_temperature;BME280_humidity;BME280_pressure;Samples;Min_cycle;Max_cycle;Signal;HPM_P1;HPM_P2
2022/03/18 00:06:50;;;;;;;33.53;21.25;;;11.50;86.20;;;;;;4983236;28;20583;-83
2022/03/18 00:16:35;;;;;;;;;;;;;;;;;;;;;
2022/03/18 00:22:45;;;;;;;27.73;17.48;;;11.50;86.80;;;;;;4914643;28;20084;-84
2022/03/18 00:56:30;;;;;;;31.45;18.20;;;11.10;90.10;;;;;;4877205;29;20028;-83
2022/03/18 02:10:15;;;;;;;24.23;16.48;;;10.90;92.80;;;;;;4822747;29;20121;-84
2022/03/18 02:37:59;;;;;;;;;;;;;;;;;;;;;
2022/03/18 02:48:28;;;;;;;;;;;;;;;;;;;;;
2022/03/18 03:04:31;;;;;;;22.58;16.25;;;10.70;93.40;;;;;;4838475;29;20054;-84
2022/03/18 05:14:32;;;;;;;10.98;8.10;;;10.40;94.80;;;;;;4955000;28;20631;-83
2022/03/18 05:17:51;;;;;;;12.88;8.38;;;10.40;94.70;;;;;;4958226;28;20030;-84
2022/03/18 05:28:16;;;;;;;;;;;;;;;;;;;;;
2022/03/18 05:31:35;;;;;;;;;;;;;;;;;;;;;
2022/03/18 05:35:00;;;;;;;14.23;7.93;;;10.30;95.30;;;;;;4876638;29;20041;-83
2022/03/18 05:38:28;;;;;;;12.73;8.85;;;10.30;95.70;;;;;;4885282;28;20072;-84
2022/03/18 05:41:07;;;;;;;12.27;8.20;;;10.30;95.50;;;;;;4975476;28;20046;-84
2022/03/18 05:44:05;;;;;;;11.32;8.55;;;10.30;95.60;;;;;;5011386;28;20041;-83
2022/03/18 05:49:44;;;;;;;12.48;7.63;;;10.30;95.80;;;;;;4974466;28;20079;-85
2022/03/18 06:00:01;;;;;;;;;;;;;;;;;;;;;
2022/03/18 06:13:08;;;;;;;11.95;7.95;;;10.40;96.80;;;;;;5070319;28;20025;-85
2022/03/18 06:15:54;;;;;;;10.70;7.18;;;10.40;97.00;;;;;;5071759;28;20024;-85
2022/03/18 06:18:20;;;;;;;15.57;10.38;;;10.40;97.30;;;;;;5052838;28;20020;-85
2022/03/18 06:20:55;;;;;;;17.23;11.15;;;10.40;97.20;;;;;;5073194;28;20088;-86
2022/03/18 06:23:24;;;;;;;9.63;7.28;;;10.40;97.50;;;;;;5072412;28;20637;-85
2022/03/18 06:25:57;;;;;;;13.82;10.15;;;10.40;97.50;;;;;;5072824;28;20038;-84
2022/03/18 06:28:35;;;;;;;13.38;8.73;;;10.40;97.50;;;;;;5054060;28;20062;-85
2022/03/18 06:31:06;;;;;;;17.33;9.82;;;10.50;97.50;;;;;;5054600;28;20387;-85
2022/03/18 06:34:16;;;;;;;23.92;10.13;;;10.50;97.60;;;;;;5055050;28;20029;-85
2022/03/18 06:41:03;;;;;;;14.48;9.32;;;10.60;98.00;;;;;;4979681;28;20096;-85
2022/03/18 06:43:32;;;;;;;13.18;10.05;;;10.60;98.00;;;;;;5067217;28;20123;-85
2022/03/18 06:46:06;;;;;;;16.00;10.70;;;10.60;98.00;;;;;;5055251;28;20028;-85
2022/03/18 06:48:35;;;;;;;11.35;9.45;;;10.60;97.90;;;;;;5055452;28;20029;-83
2022/03/18 06:51:04;;;;;;;11.75;10.05;;;10.60;97.80;;;;;;5072333;28;20052;-87
2022/03/18 06:53:52;;;;;;;16.80;10.15;;;10.70;97.80;;;;;;5072538;28;20106;-83
2022/03/18 06:56:25;;;;;;;14.40;10.40;;;10.70;98.10;;;;;;5072182;28;20029;-83
2022/03/18 06:59:11;;;;;;;14.32;10.68;;;10.80;97.80;;;;;;5054612;28;20028;-84
2022/03/18 07:01:37;;;;;;;16.02;11.15;;;10.80;97.70;;;;;;5071417;28;20049;-84
2022/03/18 07:04:48;;;;;;;14.40;8.70;;;10.90;97.90;;;;;;5072144;28;20078;-83
2022/03/18 07:07:19;;;;;;;15.52;10.20;;;10.90;97.50;;;;;;5054080;28;20075;-83
2022/03/18 07:09:56;;;;;;;17.27;11.18;;;11.00;97.40;;;;;;5071543;28;20028;-83
2022/03/18 07:12:22;;;;;;;13.35;9.82;;;11.00;97.60;;;;;;5050682;28;20028;-85
2022/03/18 07:15:14;;;;;;;11.18;7.50;;;11.10;97.30;;;;;;5053972;28;20086;-82
2022/03/18 07:20:42;;;;;;;15.52;11.00;;;11.10;97.40;;;;;;4990256;28;20074;-84
2022/03/18 07:23:30;;;;;;;21.58;10.90;;;11.30;97.50;;;;;;5055205;28;20052;-84
2022/03/18 07:26:30;;;;;;;18.08;10.05;;;11.30;97.00;;;;;;5065694;28;20032;-84
2022/03/18 07:29:14;;;;;;;15.80;10.70;;;11.30;96.70;;;;;;5066574;28;20012;-84
2022/03/18 07:31:45;;;;;;;14.10;10.43;;;11.30;97.00;;;;;;5052618;28;20075;-83
2022/03/18 07:34:20;;;;;;;15.75;11.32;;;11.40;96.90;;;;;;5071754;28;20497;-83
2022/03/18 07:37:03;;;;;;;15.00;11.52;;;11.60;96.60;;;;;;5071201;28;20024;-84
2022/03/18 07:39:33;;;;;;;17.15;10.73;;;11.70;96.60;;;;;;5070930;28;20031;-84
2022/03/18 07:42:19;;;;;;;14.45;11.73;;;11.80;96.40;;;;;;5071595;28;20025;-81
2022/03/18 07:44:45;;;;;;;21.15;12.27;;;12.00;96.00;;;;;;5053550;28;20552;-80
2022/03/18 07:47:14;;;;;;;19.23;12.20;;;12.10;95.80;;;;;;5071468;28;20025;-84
2022/03/18 07:50:20;;;;;;;20.10;11.43;;;12.10;96.60;;;;;;5069336;28;20041;-80
2022/03/18 07:52:54;;;;;;;15.75;11.57;;;12.30;95.40;;;;;;5037033;28;20068;-81
2022/03/18 07:55:31;;;;;;;18.30;11.80;;;12.10;96.00;;;;;;5070873;28;20016;-81
2022/03/18 07:57:58;;;;;;;17.33;11.90;;;12.30;95.30;;;;;;5063251;28;20078;-80
2022/03/18 08:00:44;;;;;;;16.67;12.05;;;12.60;95.30;;;;;;5070736;28;20111;-80
2022/03/18 08:03:28;;;;;;;16.67;11.23;;;12.60;95.10;;;;;;5065137;28;20111;-80
2022/03/18 08:06:14;;;;;;;16.02;11.55;;;12.70;94.80;;;;;;5070694;28;20024;-80
2022/03/18 08:09:02;;;;;;;17.25;12.25;;;12.80;94.70;;;;;;5052191;28;20029;-80
2022/03/18 08:11:52;;;;;;;18.48;12.20;;;12.70;95.00;;;;;;5068937;28;20029;-80
2022/03/18 08:14:29;;;;;;;14.80;9.93;;;12.90;94.40;;;;;;5029443;28;20072;-81
2022/03/18 08:16:58;;;;;;;20.13;11.75;;;13.10;94.20;;;;;;5068544;28;20020;-80
2022/03/18 08:19:36;;;;;;;12.68;10.43;;;13.30;93.10;;;;;;5068732;28;20515;-80
2022/03/18 08:22:04;;;;;;;15.38;10.45;;;13.40;92.90;;;;;;5069385;28;20012;-80
2022/03/18 08:24:31;;;;;;;13.90;10.77;;;13.40;92.50;;;;;;5068011;28;20036;-80
2022/03/18 08:27:06;;;;;;;26.05;10.65;;;13.40;92.40;;;;;;5070530;28;20112;-80
2022/03/18 08:29:32;;;;;;;17.00;10.63;;;13.50;92.20;;;;;;5064416;28;20028;-79
2022/03/18 08:31:58;;;;;;;15.43;10.48;;;13.40;92.20;;;;;;5070824;28;20025;-82
2022/03/18 08:34:27;;;;;;;20.15;10.35;;;13.40;92.30;;;;;;5052503;28;20115;-81
2022/03/18 08:37:04;;;;;;;13.85;10.20;;;13.50;92.20;;;;;;5071712;28;20051;-80
2022/03/18 08:39:36;;;;;;;13.00;9.88;;;13.50;91.70;;;;;;5063745;28;20124;-80
2022/03/18 08:42:15;;;;;;;14.27;10.00;;;13.50;90.90;;;;;;5068810;28;20484;-80
2022/03/18 08:48:15;;;;;;;13.60;10.18;;;13.70;91.00;;;;;;4963442;28;20053;-80
2022/03/18 08:50:53;;;;;;;18.13;9.20;;;13.80;90.70;;;;;;4968750;28;20027;-80
2022/03/18 08:53:22;;;;;;;15.40;9.27;;;13.70;91.00;;;;;;5063983;28;20056;-81
2022/03/18 08:55:51;;;;;;;12.82;10.02;;;13.80;90.30;;;;;;5052229;28;20075;-81
2022/03/18 08:58:17;;;;;;;12.50;10.15;;;13.70;90.10;;;;;;5070424;28;20060;-81
2022/03/18 09:00:43;;;;;;;14.18;9.65;;;13.60;90.30;;;;;;5072710;28;20056;-81
2022/03/18 09:03:09;;;;;;;13.70;9.85;;;13.50;90.00;;;;;;5074146;28;20120;-81
2022/03/18 09:05:35;;;;;;;14.35;9.60;;;13.40;90.80;;;;;;5074125;28;20116;-80
2022/03/18 09:08:01;;;;;;;11.52;6.90;;;13.50;90.60;;;;;;5074051;28;20040;-79
2022/03/18 09:10:47;;;;;;;11.52;8.95;;;13.40;90.20;;;;;;5073996;28;20063;-80
2022/03/18 09:13:58;;;;;;;16.98;8.57;;;13.30;90.60;;;;;;5073872;28;20031;-80
2022/03/18 09:16:14;;;;;;;10.95;7.35;;;13.00;90.80;;;;;;5068130;28;20443;-81
2022/03/18 09:19:01;;;;;;;12.63;9.40;;;13.10;90.90;;;;;;5073888;28;20478;-81
2022/03/18 09:21:27;;;;;;;13.07;9.85;;;13.00;90.70;;;;;;5073721;28;20036;-81
2022/03/18 09:23:53;;;;;;;14.70;9.40;;;13.20;90.90;;;;;;5073607;28;20120;-81
2022/03/18 09:26:19;;;;;;;14.40;9.00;;;13.40;90.60;;;;;;5073766;28;20064;-81
2022/03/18 09:28:44;;;;;;;16.17;9.50;;;13.60;90.10;;;;;;5073643;28;20052;-81
2022/03/18 09:31:10;;;;;;;12.73;9.70;;;13.80;89.50;;;;;;5073365;28;20086;-81
2022/03/18 09:33:36;;;;;;;13.02;9.25;;;14.00;88.60;;;;;;5073488;28;20024;-81
2022/03/18 09:36:09;;;;;;;13.35;8.43;;;14.10;88.00;;;;;;5073657;28;20111;-81
2022/03/18 09:38:35;;;;;;;17.33;9.73;;;14.20;86.40;;;;;;5073554;28;20059;-81
2022/03/18 09:41:01;;;;;;;13.00;9.25;;;14.20;87.10;;;;;;5073284;28;20029;-80
2022/03/18 09:43:40;;;;;;;18.70;11.00;;;14.10;86.40;;;;;;5073311;28;20448;-81
2022/03/18 09:46:21;;;;;;;12.80;10.18;;;14.10;85.50;;;;;;5073236;28;20032;-81
2022/03/18 09:48:47;;;;;;;12.65;9.40;;;14.10;86.40;;;;;;5073463;28;20042;-81
2022/03/18 09:51:21;;;;;;;21.73;9.73;;;14.20;86.40;;;;;;5073050;28;20492;-82
2022/03/18 09:53:47;;;;;;;14.25;9.88;;;14.30;86.10;;;;;;5072899;28;20128;-81
2022/03/18 09:56:19;;;;;;;14.88;10.95;;;14.40;85.60;;;;;;5055287;28;20071;-81
2022/03/18 09:58:50;;;;;;;18.63;10.23;;;14.50;84.90;;;;;;5073333;28;20507;-80
2022/03/18 10:01:17;;;;;;;14.15;10.05;;;14.40;83.60;;;;;;5072838;28;20083;-81
2022/03/18 10:03:51;;;;;;;15.55;10.38;;;14.20;83.50;;;;;;5073062;28;20435;-81
2022/03/18 10:06:31;;;;;;;13.30;10.48;;;14.20;85.20;;;;;;5038845;28;20365;-80
2022/03/18 10:09:07;;;;;;;16.60;11.55;;;14.10;84.60;;;;;;5068027;28;20031;-80
2022/03/18 10:11:37;;;;;;;22.63;10.43;;;13.60;85.40;;;;;;5072165;28;20060;-79
2022/03/18 10:14:14;;;;;;;18.52;11.15;;;13.50;85.60;;;;;;5072831;28;20025;-80
2022/03/18 10:17:10;;;;;;;14.93;10.32;;;13.50;85.00;;;;;;5047206;28;20035;-79
2022/03/18 10:19:45;;;;;;;12.07;9.85;;;13.70;85.00;;;;;;5054142;28;20040;-79
2022/03/18 10:22:42;;;;;;;11.32;9.25;;;13.70;84.20;;;;;;5071544;28;20437;-80
2022/03/18 10:25:13;;;;;;;15.32;11.30;;;13.50;84.10;;;;;;5068843;28;20024;-80
2022/03/18 10:27:53;;;;;;;16.45;11.57;;;13.50;84.40;;;;;;5072564;28;20516;-79
2022/03/18 10:30:47;;;;;;;20.13;10.95;;;13.50;84.50;;;;;;5072476;28;20031;-79
2022/03/18 10:33:13;;;;;;;16.02;10.48;;;13.60;84.20;;;;;;5066872;28;20027;-80
2022/03/18 10:38:45;;;;;;;17.58;9.98;;;13.90;83.20;;;;;;5072516;28;20040;-79
2022/03/18 10:41:29;;;;;;;12.77;10.15;;;14.00;81.40;;;;;;5072077;28;20020;-79
2022/03/18 10:43:58;;;;;;;14.45;10.57;;;14.00;80.90;;;;;;5049255;28;20177;-79
2022/03/18 10:46:27;;;;;;;14.07;11.45;;;14.10;81.10;;;;;;5071994;28;20597;-80
2022/03/18 10:49:12;;;;;;;14.27;9.95;;;14.10;81.00;;;;;;5071994;28;20151;-80
2022/03/18 10:52:10;;;;;;;12.57;10.57;;;14.30;80.80;;;;;;5071918;28;20032;-80
2022/03/18 10:54:40;;;;;;;14.75;10.48;;;14.70;80.00;;;;;;5071557;28;20028;-80
2022/03/18 10:57:06;;;;;;;18.25;9.27;;;14.90;79.00;;;;;;5070969;28;20032;-80
2022/03/18 10:59:50;;;;;;;12.40;9.38;;;14.60;76.70;;;;;;5071933;28;20017;-80
2022/03/18 11:02:17;;;;;;;14.57;10.95;;;14.60;77.30;;;;;;5071776;28;20028;-81
2022/03/18 11:04:43;;;;;;;20.42;10.95;;;14.60;77.90;;;;;;5071920;28;20111;-81
2022/03/18 11:07:40;;;;;;;15.63;10.60;;;14.70;77.80;;;;;;5072052;28;20483;-80
2022/03/18 11:13:28;;;;;;;14.90;11.27;;;14.90;75.40;;;;;;5064603;28;20122;-81
2022/03/18 11:15:59;;;;;;;12.00;8.95;;;15.00;74.90;;;;;;5065070;28;20031;-80
2022/03/18 11:18:40;;;;;;;13.57;10.50;;;15.30;73.90;;;;;;5071693;28;20033;-81
2022/03/18 11:21:38;;;;;;;16.15;11.07;;;15.20;73.90;;;;;;5071354;28;20067;-81
2022/03/18 11:24:27;;;;;;;16.15;10.60;;;15.20;74.00;;;;;;5066416;28;20037;-81
2022/03/18 11:27:04;;;;;;;14.80;10.15;;;15.40;73.70;;;;;;5059441;28;20479;-80
2022/03/18 11:29:31;;;;;;;13.38;10.32;;;15.50;73.70;;;;;;5071073;28;20025;-81
2022/03/18 11:32:29;;;;;;;18.33;10.57;;;15.60;72.60;;;;;;5071567;28;20025;-81
2022/03/18 11:34:59;;;;;;;12.20;9.55;;;15.90;70.90;;;;;;5053700;28;20024;-81
2022/03/18 11:37:38;;;;;;;16.88;10.10;;;16.00;71.10;;;;;;5071330;28;20112;-82
2022/03/18 11:40:19;;;;;;;12.52;9.73;;;16.30;71.40;;;;;;5066899;28;20008;-81
2022/03/18 11:43:26;;;;;;;12.70;9.77;;;16.60;69.20;;;;;;5071091;28;20495;-81
2022/03/18 11:46:25;;;;;;;15.98;9.80;;;16.70;68.50;;;;;;5041671;28;20380;-81
2022/03/18 11:49:05;;;;;;;17.55;10.02;;;16.40;69.20;;;;;;5071132;28;20498;-81
2022/03/18 11:51:46;;;;;;;13.57;10.25;;;16.60;68.70;;;;;;5070936;28;20020;-81
2022/03/18 11:54:27;;;;;;;13.48;9.40;;;16.70;68.70;;;;;;5051007;28;20025;-81
2022/03/18 11:56:55;;;;;;;14.00;9.45;;;16.60;68.40;;;;;;5033454;28;20021;-81
2022/03/18 11:59:27;;;;;;;13.38;10.02;;;16.60;66.60;;;;;;5050568;28;20064;-81
2022/03/18 12:02:12;;;;;;;16.48;9.73;;;15.90;67.20;;;;;;5050031;28;20021;-80
2022/03/18 12:04:52;;;;;;;12.40;10.05;;;15.70;67.90;;;;;;5050571;28;20037;-81
2022/03/18 12:07:27;;;;;;;13.38;10.15;;;15.40;69.80;;;;;;5046729;28;20021;-80
2022/03/18 12:10:34;;;;;;;12.48;9.60;;;15.30;69.70;;;;;;5049220;28;20017;-80
2022/03/18 12:13:02;;;;;;;9.65;7.10;;;15.60;69.70;;;;;;5043524;28;20025;-80
2022/03/18 12:15:30;;;;;;;15.73;8.88;;;15.80;68.10;;;;;;5050731;28;20036;-81
2022/03/18 12:17:58;;;;;;;10.73;8.85;;;15.80;67.70;;;;;;5050574;28;20032;-81
2022/03/18 12:20:34;;;;;;;17.10;9.65;;;16.10;67.60;;;;;;5050252;28;20044;-80
2022/03/18 12:23:13;;;;;;;11.95;8.80;;;17.60;65.50;;;;;;5043133;28;20123;-81
2022/03/18 12:25:43;;;;;;;13.13;7.82;;;19.80;62.10;;;;;;5042243;28;20025;-81
2022/03/18 12:28:15;;;;;;;13.93;8.82;;;21.10;58.70;;;;;;5050369;28;20028;-81
2022/03/18 12:31:04;;;;;;;10.93;7.78;;;21.80;57.30;;;;;;5042376;28;20021;-81
2022/03/18 12:33:33;;;;;;;13.00;8.57;;;22.10;56.90;;;;;;5049177;28;20037;-82
2022/03/18 12:35:59;;;;;;;11.18;8.10;;;23.20;54.90;;;;;;5050094;28;20167;-82
2022/03/18 12:38:31;;;;;;;9.75;7.45;;;24.30;52.90;;;;;;5050457;28;20056;-81
2022/03/18 12:41:06;;;;;;;9.25;7.78;;;25.60;50.60;;;;;;5049952;28;20483;-81
2022/03/18 12:43:32;;;;;;;12.35;8.10;;;23.10;51.20;;;;;;5050197;28;20110;-81
2022/03/18 12:45:58;;;;;;;9.60;8.18;;;21.80;52.40;;;;;;5050539;28;20025;-81
2022/03/18 12:48:36;;;;;;;11.30;8.43;;;20.70;53.70;;;;;;5050326;28;20027;-81
2022/03/18 12:51:05;;;;;;;10.43;7.68;;;19.70;54.60;;;;;;5050351;28;20025;-80
2022/03/18 12:53:35;;;;;;;11.55;8.50;;;18.70;55.80;;;;;;5065402;28;20135;-81
2022/03/18 12:56:13;;;;;;;13.23;8.57;;;18.70;57.00;;;;;;5070208;28;20478;-80
2022/03/18 12:58:40;;;;;;;10.77;8.15;;;18.50;56.30;;;;;;5070388;28;20074;-81
2022/03/18 13:01:08;;;;;;;11.52;7.55;;;18.40;57.50;;;;;;5069968;28;20025;-82
2022/03/18 13:03:57;;;;;;;11.75;8.20;;;18.80;57.10;;;;;;5052178;28;20532;-81
2022/03/18 13:06:27;;;;;;;13.13;8.25;;;19.50;56.10;;;;;;5054962;28;20490;-81
2022/03/18 13:09:05;;;;;;;9.32;8.27;;;19.60;55.70;;;;;;5052079;28;20517;-82
2022/03/18 13:11:33;;;;;;;10.07;8.10;;;20.40;55.90;;;;;;5070410;28;20024;-82
2022/03/18 13:14:12;;;;;;;8.63;7.70;;;20.20;54.40;;;;;;5070370;28;20068;-81
2022/03/18 13:16:46;;;;;;;11.00;8.40;;;19.30;55.40;;;;;;5051964;28;20064;-81
2022/03/18 13:19:15;;;;;;;13.20;8.55;;;19.20;56.10;;;;;;5070234;28;20027;-81
2022/03/18 13:21:47;;;;;;;13.77;8.95;;;19.10;56.10;;;;;;5069985;28;20028;-81
2022/03/18 13:24:14;;;;;;;14.25;8.05;;;19.80;55.10;;;;;;5069921;28;20032;-80
2022/03/18 13:26:45;;;;;;;12.13;8.30;;;20.40;54.00;;;;;;5069260;28;20502;-81
2022/03/18 13:29:14;;;;;;;12.98;8.05;;;20.60;54.60;;;;;;5070056;28;20506;-81
2022/03/18 13:34:32;;;;;;;9.68;7.80;;;21.30;53.80;;;;;;5069710;28;20086;-81
2022/03/18 13:37:37;;;;;;;9.30;8.23;;;21.20;52.90;;;;;;5051863;28;20111;-81
2022/03/18 13:40:14;;;;;;;9.40;7.82;;;22.60;51.30;;;;;;4968617;28;20394;-81
2022/03/18 13:43:03;;;;;;;10.93;8.38;;;22.80;50.50;;;;;;4968904;28;20023;-81
2022/03/18 13:45:30;;;;;;;10.38;7.97;;;23.80;48.80;;;;;;5040160;28;20047;-82
2022/03/18 13:48:03;;;;;;;10.48;8.73;;;23.70;49.10;;;;;;5072637;28;20013;-81
2022/03/18 13:50:43;;;;;;;9.57;8.45;;;22.80;50.00;;;;;;5073121;28;20111;-81
2022/03/18 13:53:24;;;;;;;10.70;8.88;;;21.80;51.00;;;;;;5073227;28;20649;-81
2022/03/18 13:55:59;;;;;;;10.27;9.15;;;20.40;52.70;;;;;;5066214;28;20037;-82
2022/03/18 13:58:34;;;;;;;10.02;9.00;;;19.70;54.30;;;;;;5073127;28;20029;-81
2022/03/18 14:01:08;;;;;;;15.00;9.25;;;20.00;54.90;;;;;;5073107;28;20028;-81
2022/03/18 14:03:38;;;;;;;14.82;9.23;;;20.70;53.70;;;;;;5055018;28;20109;-81
2022/03/18 14:06:13;;;;;;;15.13;9.60;;;20.80;53.70;;;;;;5073295;28;20391;-80
2022/03/18 14:08:46;;;;;;;11.18;9.60;;;21.50;52.80;;;;;;5054986;28;20016;-82
2022/03/18 14:14:36;;;;;;;15.82;9.45;;;21.50;51.30;;;;;;5072703;28;20032;-81
2022/03/18 14:17:15;;;;;;;11.98;9.07;;;21.40;51.80;;;;;;5070843;28;20024;-81
2022/03/18 14:19:58;;;;;;;12.32;10.00;;;22.00;50.70;;;;;;5071813;28;20151;-82
2022/03/18 14:22:45;;;;;;;12.68;9.75;;;22.00;50.80;;;;;;5069234;28;20028;-82
2022/03/18 14:25:15;;;;;;;11.10;9.02;;;22.90;50.40;;;;;;5069077;28;20029;-82
2022/03/18 14:27:52;;;;;;;15.23;9.20;;;24.10;48.50;;;;;;5072739;28;20435;-81
2022/03/18 14:30:24;;;;;;;13.95;9.48;;;24.30;47.70;;;;;;5072481;28;20029;-81
2022/03/18 14:32:55;;;;;;;11.80;9.13;;;24.20;47.50;;;;;;5063924;28;20091;-81
2022/03/18 14:35:23;;;;;;;11.63;9.23;;;23.50;47.80;;;;;;5072606;28;20028;-81
2022/03/18 14:37:49;;;;;;;11.40;9.10;;;22.00;49.50;;;;;;5072474;28;20024;-80
2022/03/18 14:40:17;;;;;;;11.63;8.82;;;21.90;49.80;;;;;;5072245;28;20134;-80
2022/03/18 14:42:43;;;;;;;13.45;9.68;;;21.80;49.90;;;;;;5054378;28;20021;-80
2022/03/18 14:45:14;;;;;;;13.18;9.65;;;21.10;51.00;;;;;;5072483;28;20408;-80
2022/03/18 14:48:01;;;;;;;14.23;8.70;;;21.40;50.70;;;;;;5071905;28;20017;-80
2022/03/18 14:50:27;;;;;;;13.00;9.15;;;21.40;50.40;;;;;;5071970;28;20032;-81
2022/03/18 14:52:54;;;;;;;9.85;8.70;;;22.20;49.60;;;;;;5072080;28;20083;-81
2022/03/18 14:58:05;;;;;;;14.50;9.35;;;21.80;48.80;;;;;;5065283;28;20047;-81
2022/03/18 15:00:32;;;;;;;16.15;9.27;;;21.50;49.70;;;;;;5072115;28;20070;-79
2022/03/18 15:03:01;;;;;;;11.80;9.07;;;21.60;49.60;;;;;;5054075;28;20040;-79
2022/03/18 15:05:27;;;;;;;11.60;8.88;;;21.60;49.60;;;;;;5071927;28;20112;-77
2022/03/18 15:07:53;;;;;;;13.73;8.63;;;22.10;48.80;;;;;;5071809;28;20013;-76
2022/03/18 15:10:20;;;;;;;11.10;8.93;;;21.90;48.40;;;;;;5053977;28;20025;-76
2022/03/18 15:12:46;;;;;;;13.25;9.63;;;21.00;49.30;;;;;;5053807;28;20387;-78
2022/03/18 15:15:13;;;;;;;12.45;9.13;;;20.90;50.00;;;;;;5071687;28;20028;-77
2022/03/18 15:17:39;;;;;;;12.73;9.70;;;20.40;50.00;;;;;;5053831;28;20024;-78
2022/03/18 15:20:07;;;;;;;13.20;9.30;;;20.60;50.30;;;;;;5053826;28;20025;-76
2022/03/18 15:22:33;;;;;;;14.98;9.52;;;20.70;50.30;;;;;;5053333;28;20016;-77
2022/03/18 15:25:02;;;;;;;10.98;8.73;;;21.10;49.60;;;;;;5071478;28;20025;-77
2022/03/18 15:27:28;;;;;;;10.18;8.93;;;21.80;49.00;;;;;;5053534;28;20024;-77
2022/03/18 15:29:54;;;;;;;9.98;8.65;;;21.20;48.60;;;;;;5053399;28;20020;-78
2022/03/18 15:32:19;;;;;;;13.65;9.45;;;20.70;50.30;;;;;;5053426;28;20635;-77
2022/03/18 15:34:46;;;;;;;12.93;9.45;;;20.60;50.10;;;;;;5071916;28;20017;-80
2022/03/18 15:37:14;;;;;;;16.23;9.00;;;20.40;50.20;;;;;;5053812;28;20132;-80
2022/03/18 15:39:41;;;;;;;12.48;8.88;;;20.90;49.80;;;;;;5052633;28;20059;-80
2022/03/18 15:42:10;;;;;;;13.02;9.02;;;20.30;50.20;;;;;;5071902;28;20055;-80
2022/03/18 15:44:36;;;;;;;14.15;9.18;;;20.30;51.00;;;;;;5070419;28;20098;-80
2022/03/18 15:47:02;;;;;;;10.57;8.75;;;20.80;50.00;;;;;;5050785;28;20025;-79
2022/03/18 15:49:36;;;;;;;15.30;8.80;;;19.70;51.00;;;;;;5071052;28;20067;-80
2022/03/18 15:52:04;;;;;;;10.40;8.70;;;20.00;50.90;;;;;;5050463;28;20045;-80
2022/03/18 15:54:32;;;;;;;10.30;8.80;;;20.20;50.30;;;;;;5068993;28;20452;-80
2022/03/18 15:57:07;;;;;;;14.00;9.20;;;19.30;50.90;;;;;;5069452;28;20025;-81
2022/03/18 15:59:36;;;;;;;10.82;8.05;;;18.70;52.90;;;;;;5069429;28;20024;-80
2022/03/18 16:02:07;;;;;;;14.05;9.68;;;17.90;53.20;;;;;;5063001;28;20028;-80
2022/03/18 16:04:33;;;;;;;11.93;9.60;;;17.70;54.20;;;;;;5051412;28;20055;-79
2022/03/18 16:06:59;;;;;;;12.93;8.98;;;17.80;53.90;;;;;;5070346;28;20496;-80
2022/03/18 16:09:31;;;;;;;28.80;9.63;;;17.60;54.10;;;;;;5070020;28;20024;-80
2022/03/18 16:11:59;;;;;;;13.98;9.40;;;17.50;54.90;;;;;;5071230;28;20048;-80
2022/03/18 16:14:26;;;;;;;15.52;9.35;;;16.80;55.60;;;;;;5070497;28;20036;-80
2022/03/18 16:16:52;;;;;;;13.93;8.88;;;16.50;55.90;;;;;;5053150;28;20487;-80
2022/03/18 16:19:20;;;;;;;11.93;9.05;;;16.10;57.10;;;;;;5070797;28;20035;-79
2022/03/18 16:21:46;;;;;;;13.82;9.65;;;16.20;56.80;;;;;;5070732;28;20020;-80
2022/03/18 16:24:12;;;;;;;12.77;9.43;;;16.00;56.40;;;;;;5070419;28;20483;-79
2022/03/18 16:26:43;;;;;;;11.45;10.00;;;15.80;56.20;;;;;;5070609;28;20033;-80
2022/03/18 16:29:15;;;;;;;12.77;9.43;;;15.30;57.00;;;;;;5070469;28;20057;-80
2022/03/18 16:31:41;;;;;;;14.88;10.07;;;14.80;57.90;;;;;;5069692;28;20031;-79
2022/03/18 16:34:07;;;;;;;13.27;9.20;;;14.70;58.60;;;;;;5070649;28;20056;-80
2022/03/18 16:36:33;;;;;;;12.00;8.88;;;14.60;58.80;;;;;;5052332;28;20044;-80
2022/03/18 16:39:01;;;;;;;15.57;11.00;;;14.50;59.30;;;;;;5052596;28;20036;-80
2022/03/18 16:41:27;;;;;;;16.25;10.00;;;14.30;60.10;;;;;;5052522;28;20032;-80
2022/03/18 16:43:59;;;;;;;25.08;8.63;;;14.20;60.20;;;;;;5070484;28;20038;-79
2022/03/18 16:49:28;;;;;;;12.35;8.95;;;13.50;61.90;;;;;;5068566;28;20437;-80
2022/03/18 16:51:57;;;;;;;18.13;10.45;;;13.20;62.60;;;;;;5069468;28;20031;-80
2022/03/18 16:54:27;;;;;;;14.13;10.18;;;13.00;63.50;;;;;;5069997;28;20031;-79
2022/03/18 16:56:54;;;;;;;16.65;10.82;;;12.80;64.30;;;;;;5052518;28;20040;-79
2022/03/18 16:59:21;;;;;;;36.58;9.45;;;12.60;64.90;;;;;;5050493;28;20021;-79
2022/03/18 17:01:50;;;;;;;23.73;10.65;;;12.40;65.30;;;;;;5070545;28;20117;-79
2022/03/18 17:04:24;;;;;;;12.10;9.48;;;12.30;66.40;;;;;;5070225;28;20040;-79
2022/03/18 17:06:52;;;;;;;31.48;20.63;;;12.20;66.60;;;;;;5052199;28;20067;-80
2022/03/18 17:09:21;;;;;;;15.93;11.82;;;12.10;67.00;;;;;;5069834;28;20052;-79
2022/03/18 17:11:48;;;;;;;14.13;10.85;;;12.00;67.30;;;;;;5052501;28;20487;-79
2022/03/18 17:14:14;;;;;;;17.83;12.18;;;11.90;67.80;;;;;;5070370;28;20391;-79
2022/03/18 17:16:44;;;;;;;18.15;10.93;;;11.90;68.00;;;;;;5069305;28;20032;-80
2022/03/18 17:19:11;;;;;;;21.20;8.98;;;11.80;68.20;;;;;;5070012;28;20029;-79
2022/03/18 17:21:38;;;;;;;20.67;11.65;;;11.70;68.50;;;;;;5070952;28;20048;-79
2022/03/18 17:24:05;;;;;;;23.55;10.55;;;11.60;68.80;;;;;;5055933;28;20098;-79
2022/03/18 17:26:34;;;;;;;18.80;11.77;;;11.60;69.20;;;;;;5073576;28;20180;-79
2022/03/18 17:29:00;;;;;;;16.10;11.57;;;11.60;69.60;;;;;;5073667;28;20115;-80
2022/03/18 17:31:26;;;;;;;17.00;11.32;;;11.50;69.90;;;;;;5073705;28;20103;-79
2022/03/18 17:33:52;;;;;;;15.18;10.88;;;11.50;70.00;;;;;;5055499;28;20054;-79
2022/03/18 17:36:21;;;;;;;16.02;11.55;;;11.50;70.20;;;;;;5055668;28;20025;-79
2022/03/18 17:38:59;;;;;;;19.38;12.70;;;11.40;70.70;;;;;;5055697;28;20052;-80
2022/03/18 17:41:28;;;;;;;15.38;12.00;;;11.40;70.90;;;;;;5073558;28;20032;-79
2022/03/18 17:43:57;;;;;;;17.50;12.00;;;11.40;70.80;;;;;;5049432;28;20051;-79
2022/03/18 17:46:24;;;;;;;13.48;10.98;;;11.30;70.80;;;;;;5071255;28;20400;-79
2022/03/18 17:48:50;;;;;;;18.42;11.15;;;11.20;70.80;;;;;;5055390;28;20060;-80
2022/03/18 17:51:16;;;;;;;18.27;12.52;;;11.20;71.00;;;;;;5073390;28;20447;-79
2022/03/18 17:53:43;;;;;;;21.77;12.10;;;11.20;71.50;;;;;;5073204;28;20107;-79
2022/03/18 17:56:09;;;;;;;16.65;9.98;;;11.10;71.80;;;;;;5055322;28;20379;-80
2022/03/18 17:58:35;;;;;;;17.77;12.55;;;11.10;71.90;;;;;;5073465;28;20028;-79
2022/03/18 18:01:05;;;;;;;17.58;12.80;;;11.10;72.10;;;;;;5073309;28;20369;-80
2022/03/18 18:03:32;;;;;;;16.95;12.60;;;11.10;72.30;;;;;;5054924;28;20032;-80
2022/03/18 18:05:58;;;;;;;20.45;10.73;;;11.00;72.60;;;;;;5055181;28;20105;-79
2022/03/18 18:08:24;;;;;;;22.17;11.70;;;10.90;72.80;;;;;;5073185;28;20025;-81
2022/03/18 18:10:52;;;;;;;18.13;12.98;;;10.90;72.60;;;;;;5072977;28;20036;-80
2022/03/18 18:13:17;;;;;;;25.05;14.02;;;11.00;72.80;;;;;;5073225;28;20023;-79
2022/03/18 18:15:46;;;;;;;15.30;11.52;;;10.90;73.10;;;;;;5072779;28;20032;-80
2022/03/18 18:18:11;;;;;;;19.85;13.40;;;10.90;73.40;;;;;;5072836;28;20024;-80
2022/03/18 18:23:22;;;;;;;19.30;12.10;;;10.80;73.80;;;;;;5072616;28;20051;-80
2022/03/18 18:25:51;;;;;;;19.30;11.60;;;10.70;73.80;;;;;;5054691;28;20467;-80
2022/03/18 18:28:21;;;;;;;20.10;13.80;;;10.70;74.30;;;;;;5072787;28;20479;-80
2022/03/18 18:30:51;;;;;;;14.85;11.02;;;10.70;74.40;;;;;;5072738;28;20600;-79
2022/03/18 18:33:19;;;;;;;14.32;10.55;;;10.70;74.70;;;;;;5054039;28;20021;-81
2022/03/18 18:35:45;;;;;;;19.50;12.18;;;10.60;74.40;;;;;;5072671;28;20033;-79
2022/03/18 18:38:11;;;;;;;19.48;12.73;;;10.60;74.70;;;;;;5072724;28;20418;-79
2022/03/18 18:40:40;;;;;;;22.67;13.18;;;10.60;74.80;;;;;;5072278;28;20024;-79
2022/03/18 18:43:22;;;;;;;19.98;11.98;;;10.60;74.70;;;;;;5072238;28;20024;-79
2022/03/18 18:45:48;;;;;;;17.55;13.20;;;10.70;74.30;;;;;;5065168;28;20104;-80
2022/03/18 18:48:14;;;;;;;18.17;10.77;;;10.60;74.70;;;;;;5072095;28;20103;-80
2022/03/18 18:50:39;;;;;;;14.85;10.27;;;10.60;74.30;;;;;;5072219;28;20024;-80
2022/03/18 18:53:09;;;;;;;21.05;12.15;;;10.60;74.40;;;;;;5072196;28;20041;-80
2022/03/18 18:55:38;;;;;;;27.67;12.38;;;10.60;74.80;;;;;;5054374;28;20032;-79
2022/03/18 18:58:07;;;;;;;19.77;12.82;;;10.60;74.70;;;;;;5072074;28;20107;-79
2022/03/18 19:00:34;;;;;;;19.80;11.82;;;10.60;74.80;;;;;;5054024;28;20024;-79
2022/03/18 19:03:01;;;;;;;13.35;9.90;;;10.60;74.20;;;;;;5053836;28;20035;-79
2022/03/18 19:05:30;;;;;;;20.20;12.10;;;10.50;74.60;;;;;;5072198;28;20029;-78
2022/03/18 19:07:56;;;;;;;27.65;13.68;;;10.50;74.60;;;;;;5071963;28;20012;-79